Time,TemperatureF,DewpointF,PressureIn,WindDirection,WindDirectionDegrees,WindSpeedMPH,WindSpeedGustMPH,Humidity,HourlyPrecipIn,Conditions,Clouds,dailyrainin,SoftwareType,DateUTC
2013-02-03 00:02:00,27.0,15.0,30.32,NE,56,0.0,2.0,61,0.00,,,0.00,,2013-02-03 06:02:00,
2013-02-03 01:32:00,27.0,16.0,30.31,NE,56,1.0,3.0,64,0.00,,,0.00,,2013-02-03 07:32:00,
2013-02-03 01:42:00,27.0,16.0,30.31,NE,56,1.0,3.0,64,0.00,,,0.00,,2013-02-03 07:42:00,
2013-02-03 01:52:00,27.0,16.0,30.31,NE,56,1.0,3.0,64,0.00,,,0.00,,2013-02-03 07:52:00,
2013-02-03 02:01:00,27.0,16.0,30.29,NE,56,0.0,3.0,63,0.00,,,0.00,,2013-02-03 08:01:00,
2013-02-03 02:11:00,27.0,16.0,30.29,NE,56,0.0,3.0,63,0.00,,,0.00,,2013-02-03 08:11:00,
2013-02-03 02:22:00,27.0,16.0,30.29,NE,56,0.0,3.0,63,0.00,,,0.00,,2013-02-03 08:22:00,
2013-02-03 03:02:00,26.0,16.0,30.28,NE,56,0.0,2.0,65,0.00,,,0.00,,2013-02-03 09:02:00,
2013-02-03 03:11:00,26.0,16.0,30.28,NE,56,0.0,2.0,65,0.00,,,0.00,,2013-02-03 09:11:00,
2013-02-03 03:21:00,26.0,16.0,30.28,NE,56,0.0,2.0,65,0.00,,,0.00,,2013-02-03 09:21:00,
2013-02-03 03:31:00,26.0,16.0,30.27,NE,56,1.0,3.0,64,0.00,,,0.00,,2013-02-03 09:31:00,
2013-02-03 03:42:00,26.0,16.0,30.27,NE,56,1.0,3.0,64,0.00,,,0.00,,2013-02-03 09:42:00,
2013-02-03 03:52:00,26.0,16.0,30.27,NE,56,1.0,3.0,64,0.00,,,0.00,,2013-02-03 09:52:00,
2013-02-03 04:01:00,27.0,16.0,30.24,NE,56,0.0,2.0,63,0.00,,,0.00,,2013-02-03 10:01:00,
2013-02-03 04:11:00,27.0,16.0,30.24,NE,56,0.0,2.0,63,0.00,,,0.00,,2013-02-03 10:11:00,
2013-02-03 04:21:00,27.0,16.0,30.24,NE,56,0.0,2.0,63,0.00,,,0.00,,2013-02-03 10:21:00,
2013-02-03 04:31:00,27.0,16.0,30.23,NE,56,0.0,3.0,62,0.00,,,0.00,,2013-02-03 10:31:00,
2013-02-03 04:42:00,27.0,16.0,30.23,NE,56,0.0,3.0,62,0.00,,,0.00,,2013-02-03 10:42:00,
2013-02-03 04:52:00,27.0,16.0,30.23,NE,56,0.0,3.0,62,0.00,,,0.00,,2013-02-03 10:52:00,
2013-02-03 05:02:00,28.0,17.0,30.24,NE,56,1.0,3.0,62,0.00,,,0.00,,2013-02-03 11:02:00,
2013-02-03 05:11:00,28.0,17.0,30.24,NE,56,1.0,3.0,62,0.00,,,0.00,,2013-02-03 11:11:00,
2013-02-03 05:22:00,28.0,17.0,30.24,NE,56,1.0,3.0,62,0.00,,,0.00,,2013-02-03 11:22:00,
2013-02-03 05:32:00,29.0,17.0,30.22,NE,56,0.0,3.0,60,0.00,,,0.00,,2013-02-03 11:32:00,
2013-02-03 05:42:00,29.0,17.0,30.22,NE,56,0.0,3.0,60,0.00,,,0.00,,2013-02-03 11:42:00,
2013-02-03 05:52:00,29.0,17.0,30.22,NE,56,0.0,3.0,60,0.00,,,0.00,,2013-02-03 11:52:00,
2013-02-03 07:03:00,28.0,16.0,30.34,NE,56,1.0,3.0,61,0.00,,,0.00,,2013-02-03 13:03:00,
2013-02-03 07:11:00,28.0,16.0,30.34,NE,56,1.0,3.0,61,0.00,,,0.00,,2013-02-03 13:11:00,
2013-02-03 07:21:00,28.0,16.0,30.34,NE,56,1.0,3.0,61,0.00,,,0.00,,2013-02-03 13:21:00,
2013-02-03 07:32:00,27.0,14.0,30.34,NE,52,0.0,3.0,58,0.00,,,0.00,,2013-02-03 13:32:00,
2013-02-03 07:42:00,27.0,14.0,30.34,NE,52,0.0,3.0,58,0.00,,,0.00,,2013-02-03 13:42:00,
2013-02-03 07:52:00,27.0,14.0,30.34,NE,52,0.0,3.0,58,0.00,,,0.00,,2013-02-03 13:52:00,
2013-02-03 08:22:00,26.0,16.0,30.39,NE,51,1.0,3.0,65,0.00,,,0.00,,2013-02-03 14:22:00,
2013-02-03 08:42:00,26.0,16.0,30.39,NE,51,1.0,3.0,65,0.00,,,0.00,,2013-02-03 14:42:00,
2013-02-03 08:52:00,29.0,17.0,30.40,ENE,58,1.0,5.0,61,0.00,,,0.00,,2013-02-03 14:52:00,
2013-02-03 09:11:00,29.0,17.0,30.40,ENE,58,1.0,5.0,61,0.00,,,0.00,,2013-02-03 15:11:00,
2013-02-03 09:22:00,34.0,21.0,30.35,ENE,58,0.0,5.0,58,0.00,,,0.00,,2013-02-03 15:22:00,
2013-02-03 09:32:00,34.0,21.0,30.35,ENE,58,0.0,5.0,58,0.00,,,0.00,,2013-02-03 15:32:00,
2013-02-03 09:42:00,34.0,21.0,30.35,ENE,58,0.0,5.0,58,0.00,,,0.00,,2013-02-03 15:42:00,
2013-02-03 09:52:00,45.0,17.0,30.27,ENE,59,2.0,3.0,32,0.00,,,0.00,,2013-02-03 15:52:00,
2013-02-03 10:02:00,45.0,17.0,30.27,ENE,59,2.0,3.0,32,0.00,,,0.00,,2013-02-03 16:02:00,
2013-02-03 10:11:00,45.0,17.0,30.27,ENE,59,2.0,3.0,32,0.00,,,0.00,,2013-02-03 16:11:00,
2013-02-03 10:22:00,52.0,14.0,30.22,ENE,72,3.0,8.0,22,0.00,,,0.00,,2013-02-03 16:22:00,
2013-02-03 10:32:00,52.0,14.0,30.22,ENE,72,3.0,8.0,22,0.00,,,0.00,,2013-02-03 16:32:00,
2013-02-03 10:42:00,52.0,14.0,30.22,ENE,72,3.0,8.0,22,0.00,,,0.00,,2013-02-03 16:42:00,
2013-02-03 10:52:00,54.0,13.0,30.22,SE,126,1.0,8.0,19,0.00,,,0.00,,2013-02-03 16:52:00,
2013-02-03 11:02:00,54.0,13.0,30.22,SE,126,1.0,8.0,19,0.00,,,0.00,,2013-02-03 17:02:00,
2013-02-03 11:11:00,54.0,13.0,30.22,SE,126,1.0,8.0,19,0.00,,,0.00,,2013-02-03 17:11:00,
2013-02-03 11:21:00,54.0,15.0,30.21,ESE,113,6.0,10.0,21,0.00,,,0.00,,2013-02-03 17:21:00,
2013-02-03 11:32:00,54.0,15.0,30.21,ESE,113,6.0,10.0,21,0.00,,,0.00,,2013-02-03 17:32:00,
2013-02-03 11:42:00,54.0,15.0,30.21,ESE,113,6.0,10.0,21,0.00,,,0.00,,2013-02-03 17:42:00,
2013-02-03 11:52:00,54.0,15.0,30.21,ESE,113,6.0,10.0,21,0.00,,,0.00,,2013-02-03 17:52:00,
2013-02-03 12:02:00,54.0,15.0,30.21,ESE,113,6.0,10.0,21,0.00,,,0.00,,2013-02-03 18:02:00,
2013-02-03 12:33:00,56.0,19.0,30.17,SE,136,5.0,14.0,23,0.00,,,0.00,,2013-02-03 18:33:00,
2013-02-03 12:42:00,56.0,19.0,30.17,SE,136,5.0,14.0,23,0.00,,,0.00,,2013-02-03 18:42:00,
2013-02-03 12:52:00,56.0,19.0,30.17,SE,136,5.0,14.0,23,0.00,,,0.00,,2013-02-03 18:52:00,
2013-02-03 13:02:00,56.0,19.0,30.15,NNW,337,3.0,16.0,23,0.00,,,0.00,,2013-02-03 19:02:00,
2013-02-03 13:11:00,56.0,19.0,30.15,NNW,337,3.0,16.0,23,0.00,,,0.00,,2013-02-03 19:11:00,
2013-02-03 13:22:00,56.0,19.0,30.15,NNW,337,3.0,16.0,23,0.00,,,0.00,,2013-02-03 19:22:00,
2013-02-03 13:32:00,56.0,19.0,30.15,NNW,337,3.0,16.0,23,0.00,,,0.00,,2013-02-03 19:32:00,
2013-02-03 14:01:00,57.0,19.0,30.09,West,277,0.0,12.0,22,0.00,,,0.00,,2013-02-03 20:01:00,
2013-02-03 14:12:00,57.0,19.0,30.09,West,277,0.0,12.0,22,0.00,,,0.00,,2013-02-03 20:12:00,
2013-02-03 14:21:00,57.0,19.0,30.09,West,277,0.0,12.0,22,0.00,,,0.00,,2013-02-03 20:21:00,
2013-02-03 14:32:00,56.0,18.0,30.06,ENE,72,2.0,12.0,22,0.00,,,0.00,,2013-02-03 20:32:00,
2013-02-03 14:42:00,56.0,18.0,30.06,ENE,72,2.0,12.0,22,0.00,,,0.00,,2013-02-03 20:42:00,
2013-02-03 14:52:00,56.0,18.0,30.06,ENE,72,2.0,12.0,22,0.00,,,0.00,,2013-02-03 20:52:00,
2013-02-03 15:03:00,56.0,18.0,30.06,ENE,72,2.0,12.0,22,0.00,,,0.00,,2013-02-03 21:03:00,
2013-02-03 15:33:00,57.0,15.0,30.02,SSE,155,9.0,21.0,19,0.00,,,0.00,,2013-02-03 21:33:00,
2013-02-03 15:42:00,57.0,15.0,30.02,SSE,155,9.0,21.0,19,0.00,,,0.00,,2013-02-03 21:42:00,
2013-02-03 15:52:00,58.0,15.0,30.01,WNW,295,10.0,26.0,18,0.00,,,0.00,,2013-02-03 21:52:00,
2013-02-03 16:01:00,58.0,15.0,30.01,WNW,295,10.0,26.0,18,0.00,,,0.00,,2013-02-03 22:01:00,
2013-02-03 16:11:00,58.0,15.0,30.01,WNW,295,10.0,26.0,18,0.00,,,0.00,,2013-02-03 22:11:00,
2013-02-03 16:21:00,60.0,15.0,29.99,WSW,237,6.0,21.0,17,0.00,,,0.00,,2013-02-03 22:21:00,
2013-02-03 16:32:00,60.0,15.0,29.99,WSW,237,6.0,21.0,17,0.00,,,0.00,,2013-02-03 22:32:00,
2013-02-03 16:42:00,60.0,15.0,29.99,WSW,237,6.0,21.0,17,0.00,,,0.00,,2013-02-03 22:42:00,
2013-02-03 16:52:00,58.0,15.0,29.97,SW,215,5.0,16.0,18,0.00,,,0.00,,2013-02-03 22:52:00,
2013-02-03 17:01:00,58.0,15.0,29.97,SW,215,5.0,16.0,18,0.00,,,0.00,,2013-02-03 23:01:00,
2013-02-03 17:12:00,58.0,15.0,29.97,SW,215,5.0,16.0,18,0.00,,,0.00,,2013-02-03 23:12:00,
2013-02-03 17:22:00,56.0,19.0,29.97,SW,232,9.0,24.0,23,0.00,,,0.00,,2013-02-03 23:22:00,
2013-02-03 17:32:00,56.0,19.0,29.97,SW,232,9.0,24.0,23,0.00,,,0.00,,2013-02-03 23:32:00,
2013-02-03 17:42:00,56.0,19.0,29.97,SW,232,9.0,24.0,23,0.00,,,0.00,,2013-02-03 23:42:00,
2013-02-03 17:52:00,55.0,20.0,29.97,WSW,251,3.0,12.0,25,0.00,,,0.00,,2013-02-03 23:52:00,
2013-02-03 18:01:00,55.0,20.0,29.97,WSW,251,3.0,12.0,25,0.00,,,0.00,,2013-02-04 00:01:00,
2013-02-03 18:11:00,55.0,20.0,29.97,WSW,251,3.0,12.0,25,0.00,,,0.00,,2013-02-04 00:11:00,
2013-02-03 18:22:00,56.0,19.0,29.95,WSW,253,3.0,10.0,23,0.00,,,0.00,,2013-02-04 00:22:00,
2013-02-03 18:32:00,56.0,19.0,29.95,WSW,253,3.0,10.0,23,0.00,,,0.00,,2013-02-04 00:32:00,
2013-02-03 18:42:00,56.0,19.0,29.95,WSW,253,3.0,10.0,23,0.00,,,0.00,,2013-02-04 00:42:00,
2013-02-03 18:52:00,56.0,19.0,29.95,WSW,253,3.0,10.0,23,0.00,,,0.00,,2013-02-04 00:52:00,
2013-02-03 19:01:00,56.0,19.0,29.95,WSW,253,3.0,10.0,23,0.00,,,0.00,,2013-02-04 01:01:00,
2013-02-03 19:52:00,54.0,21.0,29.99,West,261,2.0,10.0,27,0.00,,,0.00,,2013-02-04 01:52:00,
2013-02-03 20:02:00,54.0,21.0,29.99,West,261,2.0,10.0,27,0.00,,,0.00,,2013-02-04 02:02:00,
2013-02-03 20:11:00,54.0,21.0,29.99,West,261,2.0,10.0,27,0.00,,,0.00,,2013-02-04 02:11:00,
2013-02-03 20:21:00,54.0,21.0,29.99,West,261,2.0,10.0,27,0.00,,,0.00,,2013-02-04 02:21:00,
2013-02-03 20:31:00,54.0,21.0,29.99,West,261,2.0,10.0,27,0.00,,,0.00,,2013-02-04 02:31:00,
2013-02-03 20:52:00,56.0,20.0,29.90,WSW,247,5.0,12.0,24,0.00,,,0.00,,2013-02-04 02:52:00,
2013-02-03 21:02:00,56.0,20.0,29.90,WSW,247,5.0,12.0,24,0.00,,,0.00,,2013-02-04 03:02:00,
2013-02-03 21:11:00,56.0,20.0,29.90,WSW,247,5.0,12.0,24,0.00,,,0.00,,2013-02-04 03:11:00,
2013-02-03 21:21:00,56.0,20.0,29.92,West,272,5.0,12.0,24,0.00,,,0.00,,2013-02-04 03:21:00,
2013-02-03 21:32:00,56.0,20.0,29.92,West,272,5.0,12.0,24,0.00,,,0.00,,2013-02-04 03:32:00,
2013-02-03 21:42:00,56.0,20.0,29.92,West,272,5.0,12.0,24,0.00,,,0.00,,2013-02-04 03:42:00,
2013-02-03 21:52:00,55.0,19.0,29.83,WSW,248,5.0,10.0,24,0.00,,,0.00,,2013-02-04 03:52:00,
2013-02-03 22:01:00,55.0,19.0,29.83,WSW,248,5.0,10.0,24,0.00,,,0.00,,2013-02-04 04:01:00,
2013-02-03 22:11:00,55.0,19.0,29.83,WSW,248,5.0,10.0,24,0.00,,,0.00,,2013-02-04 04:11:00,
2013-02-03 22:21:00,55.0,19.0,29.83,WSW,248,5.0,10.0,24,0.00,,,0.00,,2013-02-04 04:21:00,
2013-02-03 22:32:00,54.0,18.0,29.85,SW,233,3.0,12.0,24,0.00,,,0.00,,2013-02-04 04:32:00,
2013-02-03 22:42:00,54.0,18.0,29.85,SW,233,3.0,12.0,24,0.00,,,0.00,,2013-02-04 04:42:00,
2013-02-03 22:52:00,54.0,18.0,29.83,WSW,240,6.0,14.0,24,0.00,,,0.00,,2013-02-04 04:52:00,
2013-02-03 23:03:00,54.0,18.0,29.83,WSW,240,6.0,14.0,24,0.00,,,0.00,,2013-02-04 05:03:00,
2013-02-03 23:11:00,54.0,18.0,29.83,WSW,240,6.0,14.0,24,0.00,,,0.00,,2013-02-04 05:11:00,
2013-02-03 23:22:00,53.0,17.0,29.83,SW,223,6.0,13.0,24,0.00,,,0.00,,2013-02-04 05:22:00,
2013-02-03 23:33:00,53.0,17.0,29.83,SW,223,6.0,13.0,24,0.00,,,0.00,,2013-02-04 05:33:00,
2013-02-03 23:42:00,53.0,17.0,29.83,SW,223,6.0,13.0,24,0.00,,,0.00,,2013-02-04 05:42:00,
2013-02-03 23:52:00,53.0,17.0,29.83,SW,223,6.0,13.0,24,0.00,,,0.00,,2013-02-04 05:52:00,